Portada
METAR-TAF:

METAR-TAF

Aeroports :

Néma, Mauritània

latitud: 16-37-19N, longitud: 007-18-59W, altitud: 231 m

Observació

L'informe es va fer fa 2 hores i 48 minuts, a les 09:00 UTC
Vent 18 kt del Nord-Est
Temperatura 20°C
Humitat 26%
Pressió 1017 hPa
Visibilitat: 0300 m
torb alta de sora

METAR: GQNI 110900Z 04018KT 0300 BLSA NSC 20/00 Q1017

Hora: 11:48 (11:48 UTC)


TAF: manca

Observacions i pronòstics meteorològics de més de 4000 aeroports (METAR i TAF).

Les estacions disponibles són els punts grocs i vermells al mapa.

Posi el ratolí al punt desitjat per veure el nom de l'estació.

Feu clic per veure les observacions i els pronòstics meteorològics.

Per canviar el mapa: feu clic els botons verds amb una creu de color negre per apropar; al botó verd amb un guió per allunyar la imatge; o en les fletxes verdes per a mapes adjacents.


METAR-TAF: